(°C)
(°C)
-4°
-4°
-5°
-6°
-6°
-8°
-10°
NNE
NNE
NE
NE
NE
NE
NNE
(كم/سا)
17-32
20-37
24-41
27-46
30-52
36-60
42-68
(مم)
0
0
0.3
0.8
1.3
1.7
2.2
(%)
77
84
99
99
99
99
99

مستوى ارتفاع الشمس

/ -66.2°
sun-icon
UV 0
06:55
16:53
هلال المساء (322°)
04:53
13:45

متر لبارنستابل (KHYA)

الوقت الشروط درجة الحرارة/
نقطة الندى
رياح مجال رؤية حالة الطقس غيوم الضغط تغيير خام
IFR 1.7°C / -0.6°C 40º 9kt 3200m Light Snow Mist 0.13mm precipitation Broken Clouds 600ft
Overcast 2600ft
- KHYA 290434Z AUTO 04009KT 2SM -SN BR BKN006 OVC026 02/M01 A2996 RMK AO2 P0000 T00171006
IFR 1.7°C / -1.1°C 30º 8kt 2800m Light Snow 0.13mm precipitation Broken Clouds 600ft
Overcast 2500ft
- KHYA 290410Z AUTO 03008KT 1 3/4SM -SN BKN006 OVC025 02/M01 A2998 RMK AO2 P0000 T00171011
IFR 1.7°C / -1.1°C 30º 9kt 2800m Light Snow 0.13mm precipitation Scattered Clouds 600ft
Overcast 2900ft
1015 - KHYA 290356Z AUTO 03009KT 1 3/4SM -SN SCT006 OVC029 02/M01 A2997 RMK AO2 SLP151 P0000 T00171011
IFR 1.1°C / -1.1°C 30º 8kt 3200m Light Snow Mist 0.13mm precipitation Few Clouds 600ft
Overcast 2900ft
- KHYA 290347Z AUTO 03008KT 2SM -SN BR FEW006 OVC029 01/M01 A2998 RMK AO2 P0000 T00111011
IFR 1.1°C / -2.2°C 30º 6kt 2400m Light Snow 0.13mm precipitation Overcast 2500ft - KHYA 290322Z AUTO 03006KT 1 1/2SM -SN OVC025 01/M02 A3001 RMK AO2 P0000 T00111022
IFR 1.7°C / -2.2°C 30º 5kt 4000m Light Snow 0.13mm precipitation Overcast 2900ft - KHYA 290306Z AUTO 03005KT 2 1/2SM -SN OVC029 02/M02 A3003 RMK AO2 P0000 T00171022
MVFR 1.7°C / -2.8°C 40º 6kt 6400m Light Snow 0.13mm precipitation Broken Clouds 3500ft
Overcast 4300ft
1016 - KHYA 290256Z 04006KT 4SM -SN BKN035 OVC043 02/M03 A3002 RMK AO2 SNB47 SLP167 P0000 60000 T00171028 58015
VFR 1.1°C / -3.3°C 40º 6kt >10km - Overcast 4200ft 1017 - KHYA 290156Z 04006KT 10SM OVC042 01/M03 A3004 RMK AO2 SLP174 T00111033
VFR 1.1°C / -2.8°C 40º 5kt >10km - Overcast 4800ft 1017 - KHYA 290056Z 04005KT 10SM OVC048 01/M03 A3005 RMK AO2 SLP178 T00111028
VFR 0.6°C / -2.2°C 20º 6kt >10km - Overcast 5000ft 1018 - KHYA 282356Z 02006KT 8SM OVC050 01/M02 A3007 RMK AO2 SLP183 60000 T00061022 10044 20006 58005
VFR 0.6°C / -2.8°C 20º 5kt >10km - Few Clouds 6000ft
Overcast 8500ft
1018 - KHYA 282256Z 02005KT 8SM FEW060 OVC085 01/M03 A3007 RMK AO2 SLP186 T00061028
VFR 1.1°C / -2.8°C 20º 3kt >10km - Broken Clouds 4100ft
Overcast 6000ft
1019 - KHYA 282156Z 02003KT 8SM BKN041 OVC060 01/M03 A3009 RMK AO2 SLP190 T00111028
VFR 2.2°C / -3.3°C 330º 5kt >10km 0.13mm precipitation Scattered Clouds 3500ft
Overcast 4400ft
1018 - KHYA 282056Z 33005KT 9SM SCT035 OVC044 02/M03 A3008 RMK AO2 SNB22E37 SLP188 P0000 60000 T00221033 50001
VFR 2.8°C / -4.4°C 280º 4kt >10km - Few Clouds 2800ft
Broken Clouds 4600ft
Overcast 8000ft
1019 - KHYA 281956Z 28004KT 10SM FEW028 BKN046 OVC080 03/M04 A3009 RMK AO2 SLP191 T00281044
VFR 3.3°C / -5°C 260º 7kt >10km - Few Clouds 3400ft
Broken Clouds 4800ft
Overcast 6500ft
1018 - KHYA 281856Z 26007KT 10SM FEW034 BKN048 OVC065 03/M05 A3007 RMK AO2 SLP185 T00331050
VFR 4.4°C / -7.2°C 230º 6kt >10km - Overcast 6000ft 1018 - KHYA 281756Z 23006KT 10SM OVC060 04/M07 A3008 RMK AO2 SLP186 T00441072 10044 20006 58018
VFR 3.3°C / -7.2°C 260º 8kt >10km - Overcast 7000ft 1019 - KHYA 281656Z 26008KT 10SM OVC070 03/M07 A3011 RMK AO2 SLP197 T00331072
VFR 2.8°C / -6.7°C 240º 6kt >10km - Overcast 7000ft 1020 - KHYA 281556Z 24006KT 10SM OVC070 03/M07 A3012 RMK AO2 SLP201 T00281067
VFR 2.2°C / -7.2°C 270º 6kt >10km - Few Clouds 5500ft
Broken Clouds 7000ft
Overcast 11000ft
1020 - KHYA 281456Z 27006KT 10SM FEW055 BKN070 OVC110 02/M07 A3013 RMK AO2 SLP205 T00221072 58004
VFR 1.7°C / -6.7°C 260º 5kt >10km - Overcast 7000ft 1020 - KHYA 281356Z 26005KT 10SM OVC070 02/M07 A3014 RMK AO2 SLP209 T00171067
VFR 1.1°C / -6.7°C 250º 7kt >10km - Overcast 7500ft 1020 - KHYA 281256Z 25007KT 10SM OVC075 01/M07 A3014 RMK AO2 SLP208 T00111067
VFR 0.6°C / -6.1°C 230º 6kt >10km - Overcast 7500ft 1020 - KHYA 281156Z 23006KT 10SM OVC075 01/M06 A3014 RMK AO2 SLP209 T00061061 10017 20006 53004
VFR 0.6°C / -5.6°C 260º 4kt >10km - Overcast 10000ft 1020 - KHYA 281056Z 26004KT 10SM OVC100 01/M06 A3014 RMK AO2 SLP207 T00061056
VFR 1.1°C / -5°C 250º 6kt >10km - Overcast 6000ft 1020 - KHYA 280956Z AUTO 25006KT 10SM OVC060 01/M05 A3014 RMK AO2 SLP207 T00111050

IFR

1.7°C / -0.6°C

[أكثر]
رياح 40º 9kt
مجال رؤية 3200m
حالة الطقس Light Snow Mist 0.13mm precipitation
غيوم Broken Clouds 600ft
Overcast 2600ft
الضغط
تغيير -
خام KHYA 290434Z AUTO 04009KT 2SM -SN BR BKN006 OVC026 02/M01 A2996 RMK AO2 P0000 T00171006

IFR

1.7°C / -1.1°C

[أكثر]
رياح 30º 8kt
مجال رؤية 2800m
حالة الطقس Light Snow 0.13mm precipitation
غيوم Broken Clouds 600ft
Overcast 2500ft
الضغط
تغيير -
خام KHYA 290410Z AUTO 03008KT 1 3/4SM -SN BKN006 OVC025 02/M01 A2998 RMK AO2 P0000 T00171011

IFR

1.7°C / -1.1°C

[أكثر]
رياح 30º 9kt
مجال رؤية 2800m
حالة الطقس Light Snow 0.13mm precipitation
غيوم Scattered Clouds 600ft
Overcast 2900ft
الضغط 1015
تغيير -
خام KHYA 290356Z AUTO 03009KT 1 3/4SM -SN SCT006 OVC029 02/M01 A2997 RMK AO2 SLP151 P0000 T00171011

IFR

1.1°C / -1.1°C

[أكثر]
رياح 30º 8kt
مجال رؤية 3200m
حالة الطقس Light Snow Mist 0.13mm precipitation
غيوم Few Clouds 600ft
Overcast 2900ft
الضغط
تغيير -
خام KHYA 290347Z AUTO 03008KT 2SM -SN BR FEW006 OVC029 01/M01 A2998 RMK AO2 P0000 T00111011

IFR

1.1°C / -2.2°C

[أكثر]
رياح 30º 6kt
مجال رؤية 2400m
حالة الطقس Light Snow 0.13mm precipitation
غيوم Overcast 2500ft
الضغط
تغيير -
خام KHYA 290322Z AUTO 03006KT 1 1/2SM -SN OVC025 01/M02 A3001 RMK AO2 P0000 T00111022

IFR

1.7°C / -2.2°C

[أكثر]
رياح 30º 5kt
مجال رؤية 4000m
حالة الطقس Light Snow 0.13mm precipitation
غيوم Overcast 2900ft
الضغط
تغيير -
خام KHYA 290306Z AUTO 03005KT 2 1/2SM -SN OVC029 02/M02 A3003 RMK AO2 P0000 T00171022

MVFR

1.7°C / -2.8°C

[أكثر]
رياح 40º 6kt
مجال رؤية 6400m
حالة الطقس Light Snow 0.13mm precipitation
غيوم Broken Clouds 3500ft
Overcast 4300ft
الضغط 1016
تغيير -
خام KHYA 290256Z 04006KT 4SM -SN BKN035 OVC043 02/M03 A3002 RMK AO2 SNB47 SLP167 P0000 60000 T00171028 58015

VFR

1.1°C / -3.3°C

[أكثر]
رياح 40º 6kt
مجال رؤية >10km
حالة الطقس -
غيوم Overcast 4200ft
الضغط 1017
تغيير -
خام KHYA 290156Z 04006KT 10SM OVC042 01/M03 A3004 RMK AO2 SLP174 T00111033

VFR

1.1°C / -2.8°C

[أكثر]
رياح 40º 5kt
مجال رؤية >10km
حالة الطقس -
غيوم Overcast 4800ft
الضغط 1017
تغيير -
خام KHYA 290056Z 04005KT 10SM OVC048 01/M03 A3005 RMK AO2 SLP178 T00111028

VFR

0.6°C / -2.2°C

[أكثر]
رياح 20º 6kt
مجال رؤية >10km
حالة الطقس -
غيوم Overcast 5000ft
الضغط 1018
تغيير -
خام KHYA 282356Z 02006KT 8SM OVC050 01/M02 A3007 RMK AO2 SLP183 60000 T00061022 10044 20006 58005

VFR

0.6°C / -2.8°C

[أكثر]
رياح 20º 5kt
مجال رؤية >10km
حالة الطقس -
غيوم Few Clouds 6000ft
Overcast 8500ft
الضغط 1018
تغيير -
خام KHYA 282256Z 02005KT 8SM FEW060 OVC085 01/M03 A3007 RMK AO2 SLP186 T00061028

VFR

1.1°C / -2.8°C

[أكثر]
رياح 20º 3kt
مجال رؤية >10km
حالة الطقس -
غيوم Broken Clouds 4100ft
Overcast 6000ft
الضغط 1019
تغيير -
خام KHYA 282156Z 02003KT 8SM BKN041 OVC060 01/M03 A3009 RMK AO2 SLP190 T00111028

VFR

2.2°C / -3.3°C

[أكثر]
رياح 330º 5kt
مجال رؤية >10km
حالة الطقس 0.13mm precipitation
غيوم Scattered Clouds 3500ft
Overcast 4400ft
الضغط 1018
تغيير -
خام KHYA 282056Z 33005KT 9SM SCT035 OVC044 02/M03 A3008 RMK AO2 SNB22E37 SLP188 P0000 60000 T00221033 50001

VFR

2.8°C / -4.4°C

[أكثر]
رياح 280º 4kt
مجال رؤية >10km
حالة الطقس -
غيوم Few Clouds 2800ft
Broken Clouds 4600ft
Overcast 8000ft
الضغط 1019
تغيير -
خام KHYA 281956Z 28004KT 10SM FEW028 BKN046 OVC080 03/M04 A3009 RMK AO2 SLP191 T00281044

VFR

3.3°C / -5°C

[أكثر]
رياح 260º 7kt
مجال رؤية >10km
حالة الطقس -
غيوم Few Clouds 3400ft
Broken Clouds 4800ft
Overcast 6500ft
الضغط 1018
تغيير -
خام KHYA 281856Z 26007KT 10SM FEW034 BKN048 OVC065 03/M05 A3007 RMK AO2 SLP185 T00331050

VFR

4.4°C / -7.2°C

[أكثر]
رياح 230º 6kt
مجال رؤية >10km
حالة الطقس -
غيوم Overcast 6000ft
الضغط 1018
تغيير -
خام KHYA 281756Z 23006KT 10SM OVC060 04/M07 A3008 RMK AO2 SLP186 T00441072 10044 20006 58018

VFR

3.3°C / -7.2°C

[أكثر]
رياح 260º 8kt
مجال رؤية >10km
حالة الطقس -
غيوم Overcast 7000ft
الضغط 1019
تغيير -
خام KHYA 281656Z 26008KT 10SM OVC070 03/M07 A3011 RMK AO2 SLP197 T00331072

VFR

2.8°C / -6.7°C

[أكثر]
رياح 240º 6kt
مجال رؤية >10km
حالة الطقس -
غيوم Overcast 7000ft
الضغط 1020
تغيير -
خام KHYA 281556Z 24006KT 10SM OVC070 03/M07 A3012 RMK AO2 SLP201 T00281067

VFR

2.2°C / -7.2°C

[أكثر]
رياح 270º 6kt
مجال رؤية >10km
حالة الطقس -
غيوم Few Clouds 5500ft
Broken Clouds 7000ft
Overcast 11000ft
الضغط 1020
تغيير -
خام KHYA 281456Z 27006KT 10SM FEW055 BKN070 OVC110 02/M07 A3013 RMK AO2 SLP205 T00221072 58004

VFR

1.7°C / -6.7°C

[أكثر]
رياح 260º 5kt
مجال رؤية >10km
حالة الطقس -
غيوم Overcast 7000ft
الضغط 1020
تغيير -
خام KHYA 281356Z 26005KT 10SM OVC070 02/M07 A3014 RMK AO2 SLP209 T00171067

VFR

1.1°C / -6.7°C

[أكثر]
رياح 250º 7kt
مجال رؤية >10km
حالة الطقس -
غيوم Overcast 7500ft
الضغط 1020
تغيير -
خام KHYA 281256Z 25007KT 10SM OVC075 01/M07 A3014 RMK AO2 SLP208 T00111067

VFR

0.6°C / -6.1°C

[أكثر]
رياح 230º 6kt
مجال رؤية >10km
حالة الطقس -
غيوم Overcast 7500ft
الضغط 1020
تغيير -
خام KHYA 281156Z 23006KT 10SM OVC075 01/M06 A3014 RMK AO2 SLP209 T00061061 10017 20006 53004

VFR

0.6°C / -5.6°C

[أكثر]
رياح 260º 4kt
مجال رؤية >10km
حالة الطقس -
غيوم Overcast 10000ft
الضغط 1020
تغيير -
خام KHYA 281056Z 26004KT 10SM OVC100 01/M06 A3014 RMK AO2 SLP207 T00061056

VFR

1.1°C / -5°C

[أكثر]
رياح 250º 6kt
مجال رؤية >10km
حالة الطقس -
غيوم Overcast 6000ft
الضغط 1020
تغيير -
خام KHYA 280956Z AUTO 25006KT 10SM OVC060 01/M05 A3014 RMK AO2 SLP207 T00111050

انقر لبارنستابل (KHYA)

From till


From till Wind 30º 5kt. Visibility 10km or more. in the Vicinity Showers . Overcast 3000ft.
From till Wind 30º 9kt. Visibility 10km or more. in the Vicinity Showers . Overcast 2000ft.
From till Wind 30º 11kt. Visibility 4800m. Light Snow Mist . Overcast 1500ft.
From till Wind 30º 17kt. Gust 24kt. Visibility 2400m. Light Snow Mist . Overcast 800ft.
From till Wind 30º 29kt. Gust 48kt. Wind Shear at 2000ft with winds 40º 60kt. Visibility 402.335m. Heavy Snow blowing Snow . Overcast 800ft.
From till Wind 10º 34kt. Gust 57kt. Wind Shear at 2000ft with winds 20º 65kt. Visibility 804.670m. Snow blowing Snow . Overcast 800ft.
From till Wind 360º 34kt. Gust 57kt. Visibility 402.335m. Heavy Snow . Overcast 1000ft.

خام: KHYA 282323Z 2900/2924 03005KT P6SM VCSH OVC030 FM290200 03009KT P6SM VCSH OVC020 FM290300 03011KT 3SM -SN BR OVC015 FM290600 03017G24KT 1 1/2SM -SN BR OVC008 FM291100 03029G48KT 1/4SM +SN BLSN OVC008 WS020/04060KT FM291800 01034G57KT 1/2SM SN BLSN OVC008 WS020/02065KT FM292200 36034G57KT 1/4SM +SN OVC010

رادار وهطول الأمطار التنبؤ الآني لبارنستابل

رذاذ
ضوء
معتدل
ثقيل
ثقيل جدا
وابل

مؤشر المكان يشير الى بارنستابل. تظهر في هذه الرسوم المتحركة هطول الامطار بالرادار للساعة الماضية, و توقعات 1h. رذاذ أو تساقط ثلوج خفيف قد يكون غير مرئي للرادار. كثافة هطول الأمطار مرمزة بالألوان وتتراوح من الأزرق الفاتح إلى البرتقالي.

صور الأقمار الصناعية الملتقطة حالياً لبارنستابل, الولايات المتحدة الأمريكية

المؤشر يدل على موقع بارنستابل. [أكثر]

تجمع صورة الأقمار الصناعية في الوقت الفعلي بين الضوء المرئي أثناء النهار والأشعة تحت الحمراء أثناء الليل. لا تبدو الصورة مظلمة ليلاً، لأن الأشعة تحت الحمراء يمكنها الكشف عن الاختلافات في درجة الحرارة. لسوء الحظ ، يصعب التمييز بين السحب المنخفضة والضباب ودرجات حرارة الأرض ، وبالتالي يمكن أن تكون الصور غير مرئية تقريبًا أثناء الليل. يتم تحديث صور الأقمار الصناعية Meteosat الخاصة بأوروبا في الوقت الفعلي كل 5 دقائق، بينما يتم تحديث صور GOES-16 / GOES-17 (أمريكا الشمالية والجنوبية) و Himawari (آسيا) كل 10 دقائق.